Weather History for Hot Springs, VA

Change the Weather History Date:

Thursday, September 15, 2011

  Actual Average Record
Temperature  
Mean Temperature 58 °F -  
Max Temperature 66 °F 67 °F 87 °F (1998)
Min Temperature 51 °F 53 °F 41 °F (2001)
Degree Days  
Heating Degree Days 6    
Growing Degree Days 8 (Base 50)    
Moisture  
Dew Point 57 °F    
Average Humidity 85    
Maximum Humidity 100    
Minimum Humidity 64    
Precipitation  
Precipitation 0.10 in - - ()
Sea Level Pressure  
Sea Level Pressure 30.08 in    
Wind  
Wind Speed 9 mph (West)    
Max Wind Speed 18 mph    
Max Gust Speed 29 mph    
Visibility 8 miles    
Events Rain    
Averages and records for this station are not official NWS values.
T = Trace of Precipitation, MM = Missing Value Source: NWS Daily Summary

Daily Weather History Graph

Daily Weather History Graph

Search for Another Location

Airport:

Trip Planner

Search our weather history database for the weather conditions in past years. The results will help you decide how hot, cold, wet, or windy it might be!

Date:

Astronomy

Sep. 15, 2011 Rise Set
Actual Time 7:00 AM EDT 7:27 PM EDT
Civil Twilight 6:34 AM EDT 7:54 PM EDT
Nautical Twilight 6:03 AM EDT 8:25 PM EDT
Astronomical Twilight 5:31 AM EDT 8:56 PM EDT
Moon 8:47 PM EDT (9/15) 10:02 AM EDT (9/15)
Length of Visible Light 13h 19m
Length of Day
12h 26m
Waning Gibbous, 91% of the Moon is Illuminated
Sep 15
Waning Gibbous
Sep 20
Last Quarter
Sep 27
New
Oct 3
First Quarter
Oct 11
Full

Hourly Weather History & Observations

Time (EDT) Temp. Windchill Dew Point Humidity Pressure Visibility Wind Dir Wind Speed Gust Speed Precip Events Conditions
12:17 AM 66.2 °F - 60.8 °F 83% 30.13 in 10.0 mi South 6.9 mph - N/A   Clear
12:35 AM 66.2 °F - 60.8 °F 83% 30.13 in 10.0 mi SSW 6.9 mph - N/A   Scattered Clouds
12:55 AM 66.2 °F - 60.8 °F 83% 30.12 in 10.0 mi SW 10.4 mph - N/A   Scattered Clouds
1:16 AM 66.2 °F - 59.0 °F 78% 30.11 in 10.0 mi SW 10.4 mph - N/A   Scattered Clouds
1:35 AM 66.2 °F - 57.2 °F 73% 30.10 in 10.0 mi SW 10.4 mph - N/A   Scattered Clouds
1:55 AM 66.2 °F - 57.2 °F 73% 30.10 in 10.0 mi SW 8.1 mph - N/A   Clear
1:57 AM 66.2 °F - 57.2 °F 73% 30.10 in 10.0 mi SW 9.2 mph - N/A   Clear
2:15 AM 66.2 °F - 55.4 °F 68% 30.10 in 10.0 mi SW 10.4 mph - N/A   Unknown
2:35 AM 66.2 °F - 55.4 °F 68% 30.09 in 10.0 mi SW 9.2 mph - N/A   Clear
2:55 AM 66.2 °F - 55.4 °F 68% 30.08 in 10.0 mi SW 10.4 mph - N/A   Clear
3:15 AM 64.4 °F - 55.4 °F 73% 30.07 in 10.0 mi SW 10.4 mph 16.1 mph N/A   Clear
3:35 AM 66.2 °F - 53.6 °F 64% 30.06 in 10.0 mi SW 10.4 mph - N/A   Clear
3:37 AM 66.2 °F - 53.6 °F 64% 30.06 in 10.0 mi SW 10.4 mph - N/A   Clear
3:55 AM 66.2 °F - 53.6 °F 64% 30.06 in 10.0 mi SW 10.4 mph 18.4 mph N/A   Clear
4:15 AM 66.2 °F - 53.6 °F 64% 30.06 in 10.0 mi SW 11.5 mph - N/A   Clear
4:35 AM 66.2 °F - 53.6 °F 64% 30.05 in 10.0 mi SW 10.4 mph - N/A   Clear
5:15 AM 64.4 °F - 51.8 °F 64% 30.05 in 10.0 mi SW 10.4 mph - N/A   Clear
5:37 AM 64.4 °F - 53.6 °F 68% 30.05 in 10.0 mi WSW 11.5 mph - N/A   Clear
5:55 AM 62.6 °F - 53.6 °F 72% 30.05 in 10.0 mi WSW 9.2 mph - N/A   Clear
6:15 AM 62.6 °F - 53.6 °F 72% 30.05 in 10.0 mi West 10.4 mph - N/A   Clear
6:37 AM 62.6 °F - 55.4 °F 77% 30.05 in 10.0 mi West 9.2 mph - N/A   Clear
6:55 AM 62.6 °F - 57.2 °F 82% 30.06 in 10.0 mi West 9.2 mph - N/A   Clear
6:57 AM 62.6 °F - 57.2 °F 82% 30.06 in 10.0 mi West 8.1 mph - N/A   Clear
7:16 AM 60.8 °F - 57.2 °F 88% 30.06 in 10.0 mi West 5.8 mph - N/A   Clear
7:35 AM 62.6 °F - 57.2 °F 82% 30.07 in 10.0 mi West 6.9 mph - N/A   Clear
8:15 AM 62.6 °F - 57.2 °F 82% 30.06 in 10.0 mi West 4.6 mph - N/A   Clear
8:35 AM 62.6 °F - 57.2 °F 82% 30.06 in 10.0 mi WNW 5.8 mph - N/A   Clear
8:56 AM 62.6 °F - 59.0 °F 88% 30.07 in 10.0 mi West 8.1 mph - N/A   Clear
9:15 AM 62.6 °F - 59.0 °F 88% 30.07 in 10.0 mi West 8.1 mph - N/A   Clear
9:17 AM 62.6 °F - 59.0 °F 88% 30.07 in 10.0 mi WNW 8.1 mph - N/A   Clear
9:37 AM 60.8 °F - 59.0 °F 94% 30.07 in 10.0 mi West 8.1 mph - N/A   Clear
9:55 AM 60.8 °F - 59.0 °F 94% 30.08 in 7.0 mi WNW 6.9 mph - N/A   Scattered Clouds
10:15 AM 60.8 °F - 59.0 °F 94% 30.08 in 10.0 mi WNW 5.8 mph - N/A   Mostly Cloudy
10:36 AM 60.8 °F - 60.8 °F 100% 30.09 in 5.0 mi West 10.4 mph - N/A   Mostly Cloudy
10:55 AM 60.8 °F - 59.0 °F 94% 30.09 in 3.0 mi WNW 8.1 mph - N/A   Overcast
11:15 AM 60.8 °F - 57.2 °F 88% 30.09 in 10.0 mi West 3.5 mph - N/A   Overcast
11:35 AM 60.8 °F - 57.2 °F 88% 30.09 in 10.0 mi WNW 6.9 mph - N/A   Overcast
11:36 AM 60.8 °F - 57.2 °F 88% 30.09 in 10.0 mi WNW 6.9 mph - N/A   Overcast
11:55 AM 60.8 °F - 57.2 °F 88% 30.09 in 10.0 mi NW 5.8 mph - N/A   Overcast
11:56 AM 60.8 °F - 57.2 °F 88% 30.09 in 10.0 mi NW 5.8 mph - N/A   Overcast
12:15 PM 60.8 °F - 57.2 °F 88% 30.09 in 10.0 mi NW 6.9 mph - N/A   Overcast
12:35 PM 60.8 °F - 59.0 °F 94% 30.09 in 10.0 mi WNW 10.4 mph - N/A   Overcast
12:37 PM 60.8 °F - 59.0 °F 94% 30.09 in 10.0 mi NW 9.2 mph - N/A   Overcast
12:55 PM 60.8 °F - 57.2 °F 88% 30.09 in 10.0 mi WNW 9.2 mph - N/A   Overcast
1:15 PM 60.8 °F - 60.8 °F 100% 30.08 in 4.0 mi NW 10.4 mph - N/A Rain Light Rain
1:35 PM 59.0 °F - 59.0 °F 100% 30.09 in 4.0 mi NW 9.2 mph - N/A   Overcast
1:36 PM 59.0 °F - 59.0 °F 100% 30.09 in 5.0 mi NW 9.2 mph - N/A   Overcast
1:55 PM 57.2 °F - 57.2 °F 100% 30.09 in 5.0 mi NW 11.5 mph 16.1 mph N/A Rain Light Rain
1:57 PM 57.2 °F - 57.2 °F 100% 30.09 in 4.0 mi NNW 11.5 mph 17.3 mph N/A Rain Light Rain
2:15 PM 55.4 °F - 55.4 °F 100% 30.10 in 7.0 mi NNW 16.1 mph 19.6 mph N/A   Drizzle
2:37 PM 55.4 °F - 55.4 °F 100% 30.10 in 2.5 mi NNW 15.0 mph 19.6 mph 0.03 in   Heavy Drizzle
2:56 PM 55.4 °F - 53.6 °F 94% 30.10 in 0.2 mi NW 15.0 mph 20.7 mph 0.01 in   Heavy Drizzle
3:15 PM 55.4 °F - 53.6 °F 94% 30.10 in 0.2 mi NW 15.0 mph 18.4 mph 0.03 in   Heavy Drizzle
3:17 PM 55.4 °F - 53.6 °F 94% 30.10 in 0.2 mi NW 12.7 mph 17.3 mph 0.03 in   Heavy Drizzle
3:36 PM 53.6 °F - 53.6 °F 100% 30.10 in 0.2 mi NW 17.3 mph 24.2 mph 0.06 in   Heavy Drizzle
3:55 PM 53.6 °F - 53.6 °F 100% 30.11 in 0.2 mi NW 18.4 mph 26.5 mph N/A Rain Heavy Rain
4:15 PM 53.6 °F - 53.6 °F 100% 30.12 in 0.2 mi NW 16.1 mph 23.0 mph 0.01 in   Heavy Drizzle
4:18 PM 51.8 °F - 51.8 °F 100% 30.12 in 0.2 mi NW 17.3 mph 28.8 mph 0.01 in   Drizzle
4:39 PM 51.8 °F - 51.8 °F 100% 30.12 in 10.0 mi WNW 15.0 mph 23.0 mph 0.01 in   Overcast
4:55 PM 50.0 °F - 50.0 °F 100% 30.11 in 7.0 mi NW 17.3 mph 26.5 mph N/A   Overcast
4:59 PM 50.0 °F - 50.0 °F 100% 30.11 in 7.0 mi NW 18.4 mph 26.5 mph N/A   Overcast
5:17 PM 50.0 °F - 50.0 °F 100% 30.12 in 0.2 mi NW 17.3 mph 24.2 mph N/A Fog Fog
5:35 PM 50.0 °F - 50.0 °F 100% 30.13 in 0.2 mi NW 16.1 mph 20.7 mph N/A   Drizzle
5:56 PM 48.2 °F - 48.2 °F 100% 30.15 in 10.0 mi NW 15.0 mph 21.9 mph N/A   Overcast
6:15 PM 48.2 °F - 48.2 °F 100% 30.15 in 10.0 mi NW 8.1 mph 20.7 mph N/A   Overcast
7:15 PM 46.4 °F 40.1 °F 46.4 °F 100% 30.19 in 10.0 mi NNW 15.0 mph 21.9 mph N/A   Unknown
7:36 PM 46.4 °F 39.2 °F 44.6 °F 93% 30.19 in 10.0 mi NNW 18.4 mph 28.8 mph N/A   Overcast
7:57 PM 44.6 °F 36.9 °F 42.8 °F 93% 30.19 in 10.0 mi NNW 18.4 mph 26.5 mph N/A   Overcast
8:15 PM 44.6 °F 36.9 °F 42.8 °F 93% 30.19 in 10.0 mi NNW 18.4 mph 23.0 mph N/A   Overcast
8:36 PM 44.6 °F 38.1 °F 42.8 °F 93% 30.21 in 10.0 mi NNW 13.8 mph 20.7 mph N/A   Mostly Cloudy
8:57 PM 42.8 °F 35.8 °F 42.8 °F 100% 30.22 in 10.0 mi NNW 13.8 mph 18.4 mph N/A   Mostly Cloudy
9:17 PM 42.8 °F 36.2 °F 42.8 °F 100% 30.23 in 10.0 mi NNW 12.7 mph - N/A   Scattered Clouds
9:36 PM 42.8 °F 34.8 °F 39.2 °F 87% 30.22 in 10.0 mi NNW 17.3 mph 25.3 mph N/A   Scattered Clouds
9:57 PM 42.8 °F 37.0 °F 39.2 °F 87% 30.24 in 10.0 mi North 10.4 mph - N/A   Clear
10:19 PM 41.0 °F 35.2 °F 39.2 °F 93% 30.25 in 10.0 mi NNW 9.2 mph - N/A   Scattered Clouds
10:38 PM 41.0 °F 35.2 °F 39.2 °F 93% 30.25 in 10.0 mi NNW 9.2 mph 19.6 mph N/A   Scattered Clouds
10:57 PM 39.2 °F 32.5 °F 39.2 °F 100% 30.25 in 10.0 mi NNW 10.4 mph - N/A   Clear
11:19 PM 39.2 °F 33.0 °F 37.4 °F 93% 30.26 in 10.0 mi NNW 9.2 mph - N/A   Clear
11:36 PM 39.2 °F 32.5 °F 37.4 °F 93% 30.27 in 10.0 mi North 10.4 mph - N/A   Clear
11:55 PM 39.2 °F 34.2 °F 37.4 °F 93% 30.27 in 10.0 mi North 6.9 mph - N/A   Unknown